sensor_id;sensor_type;location;lat;lon;timestamp;pressure;altitude;pressure_sealevel;temperature
69186;BMP280;56298;49.246;9.410;2023-12-20T00:01:15;99462.97;;;5.56
69186;BMP280;56298;49.246;9.410;2023-12-20T00:03:41;99467.44;;;5.52
69186;BMP280;56298;49.246;9.410;2023-12-20T00:06:06;99465.34;;;5.57
69186;BMP280;56298;49.246;9.410;2023-12-20T00:08:31;99450.97;;;5.57
69186;BMP280;56298;49.246;9.410;2023-12-20T00:10:56;99457.66;;;5.51
69186;BMP280;56298;49.246;9.410;2023-12-20T00:13:22;99459.91;;;5.57
69186;BMP280;56298;49.246;9.410;2023-12-20T00:15:47;99465.03;;;5.59
69186;BMP280;56298;49.246;9.410;2023-12-20T00:18:12;99457.38;;;5.61
69186;BMP280;56298;49.246;9.410;2023-12-20T00:20:37;99458.16;;;5.61
69186;BMP280;56298;49.246;9.410;2023-12-20T00:23:03;99452.09;;;5.56
69186;BMP280;56298;49.246;9.410;2023-12-20T00:25:28;99456.25;;;5.53
69186;BMP280;56298;49.246;9.410;2023-12-20T00:27:53;99450.63;;;5.50
69186;BMP280;56298;49.246;9.410;2023-12-20T00:30:19;99447.91;;;5.50
69186;BMP280;56298;49.246;9.410;2023-12-20T00:32:44;99449.50;;;5.51
69186;BMP280;56298;49.246;9.410;2023-12-20T00:35:15;99446.66;;;5.56
69186;BMP280;56298;49.246;9.410;2023-12-20T00:37:42;99443.16;;;5.55
69186;BMP280;56298;49.246;9.410;2023-12-20T00:40:07;99437.38;;;5.57
69186;BMP280;56298;49.246;9.410;2023-12-20T00:42:33;99439.44;;;5.60
69186;BMP280;56298;49.246;9.410;2023-12-20T00:44:59;99438.50;;;5.56
69186;BMP280;56298;49.246;9.410;2023-12-20T00:47:24;99436.41;;;5.61
69186;BMP280;56298;49.246;9.410;2023-12-20T00:49:49;99431.28;;;5.60
69186;BMP280;56298;49.246;9.410;2023-12-20T00:52:15;99422.81;;;5.61
69186;BMP280;56298;49.246;9.410;2023-12-20T00:54:42;99430.00;;;5.57
69186;BMP280;56298;49.246;9.410;2023-12-20T00:57:07;99423.94;;;5.60
69186;BMP280;56298;49.246;9.410;2023-12-20T00:59:32;99420.75;;;5.58
69186;BMP280;56298;49.246;9.410;2023-12-20T01:01:58;99413.38;;;5.59
69186;BMP280;56298;49.246;9.410;2023-12-20T01:04:23;99417.50;;;5.56
69186;BMP280;56298;49.246;9.410;2023-12-20T01:06:48;99417.50;;;5.56
69186;BMP280;56298;49.246;9.410;2023-12-20T01:09:13;99421.22;;;5.60
69186;BMP280;56298;49.246;9.410;2023-12-20T01:11:39;99424.09;;;5.55
69186;BMP280;56298;49.246;9.410;2023-12-20T01:14:04;99417.69;;;5.51
69186;BMP280;56298;49.246;9.410;2023-12-20T01:16:30;99420.53;;;5.46
69186;BMP280;56298;49.246;9.410;2023-12-20T01:18:55;99417.19;;;5.49
69186;BMP280;56298;49.246;9.410;2023-12-20T01:21:20;99409.66;;;5.46
69186;BMP280;56298;49.246;9.410;2023-12-20T01:23:46;99410.94;;;5.48
69186;BMP280;56298;49.246;9.410;2023-12-20T01:26:11;99419.84;;;5.40
69186;BMP280;56298;49.246;9.410;2023-12-20T01:28:37;99419.25;;;5.43
69186;BMP280;56298;49.246;9.410;2023-12-20T01:31:03;99414.63;;;5.44
69186;BMP280;56298;49.246;9.410;2023-12-20T01:33:29;99414.41;;;5.31
69186;BMP280;56298;49.246;9.410;2023-12-20T01:35:54;99402.25;;;5.29
69186;BMP280;56298;49.246;9.410;2023-12-20T01:38:19;99413.06;;;5.20
69186;BMP280;56298;49.246;9.410;2023-12-20T01:40:45;99407.31;;;5.21
69186;BMP280;56298;49.246;9.410;2023-12-20T01:43:10;99409.91;;;5.27
69186;BMP280;56298;49.246;9.410;2023-12-20T01:45:37;99412.00;;;5.30
69186;BMP280;56298;49.246;9.410;2023-12-20T01:48:04;99414.09;;;5.33
69186;BMP280;56298;49.246;9.410;2023-12-20T01:50:30;99404.97;;;5.29
69186;BMP280;56298;49.246;9.410;2023-12-20T01:52:58;99401.56;;;5.23
69186;BMP280;56298;49.246;9.410;2023-12-20T01:55:25;99403.16;;;5.24
69186;BMP280;56298;49.246;9.410;2023-12-20T01:57:51;99401.25;;;5.25
69186;BMP280;56298;49.246;9.410;2023-12-20T02:00:17;99403.66;;;5.26
69186;BMP280;56298;49.246;9.410;2023-12-20T02:02:44;99405.94;;;5.33
69186;BMP280;56298;49.246;9.410;2023-12-20T02:08:32;99400.50;;;5.42
69186;BMP280;56298;49.246;9.410;2023-12-20T02:10:57;99406.00;;;5.51
69186;BMP280;56298;49.246;9.410;2023-12-20T02:13:23;99406.78;;;5.42
69186;BMP280;56298;49.246;9.410;2023-12-20T02:15:48;99403.88;;;5.39
69186;BMP280;56298;49.246;9.410;2023-12-20T02:18:13;99397.50;;;5.43
69186;BMP280;56298;49.246;9.410;2023-12-20T02:20:41;99400.81;;;5.40
69186;BMP280;56298;49.246;9.410;2023-12-20T02:23:07;99401.34;;;5.42
69186;BMP280;56298;49.246;9.410;2023-12-20T02:25:32;99398.78;;;5.37
69186;BMP280;56298;49.246;9.410;2023-12-20T02:27:57;99396.38;;;5.44
69186;BMP280;56298;49.246;9.410;2023-12-20T02:30:22;99391.88;;;5.40
69186;BMP280;56298;49.246;9.410;2023-12-20T02:32:49;99398.63;;;5.51
69186;BMP280;56298;49.246;9.410;2023-12-20T02:35:14;99390.78;;;5.50
69186;BMP280;56298;49.246;9.410;2023-12-20T02:37:40;99393.19;;;5.42
69186;BMP280;56298;49.246;9.410;2023-12-20T02:40:06;99399.56;;;5.38
69186;BMP280;56298;49.246;9.410;2023-12-20T02:42:31;99394.44;;;5.36
69186;BMP280;56298;49.246;9.410;2023-12-20T02:44:56;99394.59;;;5.40
69186;BMP280;56298;49.246;9.410;2023-12-20T02:47:21;99396.69;;;5.43
69186;BMP280;56298;49.246;9.410;2023-12-20T02:49:47;99385.97;;;5.38
69186;BMP280;56298;49.246;9.410;2023-12-20T02:52:12;99393.13;;;5.33
69186;BMP280;56298;49.246;9.410;2023-12-20T02:54:37;99390.63;;;5.37
69186;BMP280;56298;49.246;9.410;2023-12-20T02:57:03;99396.97;;;5.32
69186;BMP280;56298;49.246;9.410;2023-12-20T02:59:28;99399.38;;;5.34
69186;BMP280;56298;49.246;9.410;2023-12-20T03:01:53;99397.81;;;5.42
69186;BMP280;56298;49.246;9.410;2023-12-20T03:04:18;99397.50;;;5.43
69186;BMP280;56298;49.246;9.410;2023-12-20T03:06:44;99408.84;;;5.45
69186;BMP280;56298;49.246;9.410;2023-12-20T03:09:09;99398.09;;;5.40
69186;BMP280;56298;49.246;9.410;2023-12-20T03:11:34;99399.84;;;5.27
69186;BMP280;56298;49.246;9.410;2023-12-20T03:13:59;99404.97;;;5.29
69186;BMP280;56298;49.246;9.410;2023-12-20T03:16:25;99407.38;;;5.30
69186;BMP280;56298;49.246;9.410;2023-12-20T03:18:50;99406.38;;;5.26
69186;BMP280;56298;49.246;9.410;2023-12-20T03:21:16;99412.81;;;5.30
69186;BMP280;56298;49.246;9.410;2023-12-20T03:23:41;99407.25;;;5.36
69186;BMP280;56298;49.246;9.410;2023-12-20T03:26:07;99408.53;;;5.38
69186;BMP280;56298;49.246;9.410;2023-12-20T03:28:33;99407.06;;;5.32
69186;BMP280;56298;49.246;9.410;2023-12-20T03:30:58;99406.13;;;5.37
69186;BMP280;56298;49.246;9.410;2023-12-20T03:33:23;99401.16;;;5.39
69186;BMP280;56298;49.246;9.410;2023-12-20T03:35:48;99413.00;;;5.43
69186;BMP280;56298;49.246;9.410;2023-12-20T03:38:14;99410.75;;;5.36
69186;BMP280;56298;49.246;9.410;2023-12-20T03:40:39;99418.75;;;5.41
69186;BMP280;56298;49.246;9.410;2023-12-20T03:43:04;99424.53;;;5.48
69186;BMP280;56298;49.246;9.410;2023-12-20T03:45:29;99409.97;;;5.44
69186;BMP280;56298;49.246;9.410;2023-12-20T03:47:55;99419.25;;;5.43
69186;BMP280;56298;49.246;9.410;2023-12-20T03:50:25;99409.31;;;5.39
69186;BMP280;56298;49.246;9.410;2023-12-20T03:52:50;99414.41;;;5.31
69186;BMP280;56298;49.246;9.410;2023-12-20T03:55:15;99412.38;;;5.37
69186;BMP280;56298;49.246;9.410;2023-12-20T03:57:41;99413.81;;;5.43
69186;BMP280;56298;49.246;9.410;2023-12-20T04:00:09;99404.84;;;5.43
69186;BMP280;56298;49.246;9.410;2023-12-20T04:02:39;99383.09;;;5.43
69186;BMP280;56298;49.246;9.410;2023-12-20T04:05:05;99387.22;;;5.40
69186;BMP280;56298;49.246;9.410;2023-12-20T04:07:31;99394.78;;;5.43
69186;BMP280;56298;49.246;9.410;2023-12-20T04:09:56;99393.19;;;5.42
69186;BMP280;56298;49.246;9.410;2023-12-20T04:12:22;99399.56;;;5.38
69186;BMP280;56298;49.246;9.410;2023-12-20T04:14:47;99396.50;;;5.39
69186;BMP280;56298;49.246;9.410;2023-12-20T04:17:12;99402.13;;;5.43
69186;BMP280;56298;49.246;9.410;2023-12-20T04:19:38;99407.53;;;5.34
69186;BMP280;56298;49.246;9.410;2023-12-20T04:22:03;99408.47;;;5.29
69186;BMP280;56298;49.246;9.410;2023-12-20T04:24:28;99412.16;;;5.33
69186;BMP280;56298;49.246;9.410;2023-12-20T04:26:54;99430.41;;;5.33
69186;BMP280;56298;49.246;9.410;2023-12-20T04:29:19;99418.72;;;5.32
69186;BMP280;56298;49.246;9.410;2023-12-20T04:31:44;99427.22;;;5.40
69186;BMP280;56298;49.246;9.410;2023-12-20T04:34:09;99417.00;;;5.37
69186;BMP280;56298;49.246;9.410;2023-12-20T04:36:35;99422.25;;;5.33
69186;BMP280;56298;49.246;9.410;2023-12-20T04:39:00;99426.09;;;5.41
69186;BMP280;56298;49.246;9.410;2023-12-20T04:41:25;99432.84;;;5.43
69186;BMP280;56298;49.246;9.410;2023-12-20T04:43:52;99435.25;;;5.45
69186;BMP280;56298;49.246;9.410;2023-12-20T04:46:17;99437.78;;;5.41
69186;BMP280;56298;49.246;9.410;2023-12-20T04:48:43;99432.03;;;5.43
69186;BMP280;56298;49.246;9.410;2023-12-20T04:51:08;99441.31;;;5.42
69186;BMP280;56298;49.246;9.410;2023-12-20T04:53:33;99437.00;;;5.41
69186;BMP280;56298;49.246;9.410;2023-12-20T04:55:59;99439.41;;;5.42
69186;BMP280;56298;49.246;9.410;2023-12-20T04:58:25;99429.13;;;5.39
69186;BMP280;56298;49.246;9.410;2023-12-20T05:00:52;99435.56;;;5.34
69186;BMP280;56298;49.246;9.410;2023-12-20T05:03:17;99441.47;;;5.37
69186;BMP280;56298;49.246;9.410;2023-12-20T05:05:43;99446.25;;;5.40
69186;BMP280;56298;49.246;9.410;2023-12-20T05:08:08;99438.28;;;5.43
69186;BMP280;56298;49.246;9.410;2023-12-20T05:10:33;99446.25;;;5.40
69186;BMP280;56298;49.246;9.410;2023-12-20T05:12:59;99451.25;;;5.46
69186;BMP280;56298;49.246;9.410;2023-12-20T05:15:24;99458.75;;;5.41
69186;BMP280;56298;49.246;9.410;2023-12-20T05:17:49;99456.81;;;5.41
69186;BMP280;56298;49.246;9.410;2023-12-20T05:20:15;99467.19;;;5.39
69186;BMP280;56298;49.246;9.410;2023-12-20T05:26:03;99475.41;;;5.48
69186;BMP280;56298;49.246;9.410;2023-12-20T05:28:28;99474.63;;;5.47
69186;BMP280;56298;49.246;9.410;2023-12-20T05:30:53;99478.13;;;5.48
69186;BMP280;56298;49.246;9.410;2023-12-20T05:33:19;99477.94;;;5.44
69186;BMP280;56298;49.246;9.410;2023-12-20T05:35:44;99490.63;;;5.49
69186;BMP280;56298;49.246;9.410;2023-12-20T05:38:09;99490.00;;;5.52
69186;BMP280;56298;49.246;9.410;2023-12-20T05:40:34;99496.38;;;5.56
69186;BMP280;56298;49.246;9.410;2023-12-20T05:43:00;99499.28;;;5.60
69186;BMP280;56298;49.246;9.410;2023-12-20T05:45:25;99503.13;;;5.59
69186;BMP280;56298;49.246;9.410;2023-12-20T05:47:50;99499.94;;;5.57
69186;BMP280;56298;49.246;9.410;2023-12-20T05:50:15;99503.88;;;5.51
69186;BMP280;56298;49.246;9.410;2023-12-20T05:52:41;99503.28;;;5.54
69186;BMP280;56298;49.246;9.410;2023-12-20T05:55:06;99502.16;;;5.55
69186;BMP280;56298;49.246;9.410;2023-12-20T05:57:31;99506.34;;;5.61
69186;BMP280;56298;49.246;9.410;2023-12-20T05:59:57;99508.88;;;5.57
69186;BMP280;56298;49.246;9.410;2023-12-20T06:02:23;99515.13;;;5.58
69186;BMP280;56298;49.246;9.410;2023-12-20T06:04:48;99516.13;;;5.62
69186;BMP280;56298;49.246;9.410;2023-12-20T06:07:14;99504.94;;;5.72
69186;BMP280;56298;49.246;9.410;2023-12-20T06:09:39;99509.75;;;5.75
69186;BMP280;56298;49.246;9.410;2023-12-20T06:12:05;99512.34;;;5.81
69186;BMP280;56298;49.246;9.410;2023-12-20T06:14:30;99514.09;;;5.77
69186;BMP280;56298;49.246;9.410;2023-12-20T06:16:56;99509.94;;;5.70
69186;BMP280;56298;49.246;9.410;2023-12-20T06:19:22;99506.41;;;5.79
69186;BMP280;56298;49.246;9.410;2023-12-20T06:21:47;99506.59;;;5.91
69186;BMP280;56298;49.246;9.410;2023-12-20T06:24:12;99516.38;;;5.92
69186;BMP280;56298;49.246;9.410;2023-12-20T06:26:38;99520.22;;;5.91
69186;BMP280;56298;49.246;9.410;2023-12-20T06:29:03;99522.00;;;5.96
69186;BMP280;56298;49.246;9.410;2023-12-20T06:31:28;99528.06;;;5.93
69186;BMP280;56298;49.246;9.410;2023-12-20T06:33:54;99521.88;;;6.01
69186;BMP280;56298;49.246;9.410;2023-12-20T06:36:31;99526.63;;;5.95
69186;BMP280;56298;49.246;9.410;2023-12-20T06:38:57;99529.97;;;5.92
69186;BMP280;56298;49.246;9.410;2023-12-20T06:41:23;99534.50;;;5.97
69186;BMP280;56298;49.246;9.410;2023-12-20T06:43:49;99537.63;;;5.81
69186;BMP280;56298;49.246;9.410;2023-12-20T06:46:14;99548.03;;;5.79
69186;BMP280;56298;49.246;9.410;2023-12-20T06:48:40;99560.94;;;5.73
69186;BMP280;56298;49.246;9.410;2023-12-20T06:51:06;99552.03;;;5.82
69186;BMP280;56298;49.246;9.410;2023-12-20T06:53:31;99556.03;;;5.75
69186;BMP280;56298;49.246;9.410;2023-12-20T06:55:56;99558.91;;;5.79
69186;BMP280;56298;49.246;9.410;2023-12-20T06:58:23;99563.06;;;5.77
69186;BMP280;56298;49.246;9.410;2023-12-20T07:00:48;99565.34;;;5.83
69186;BMP280;56298;49.246;9.410;2023-12-20T07:03:13;99571.22;;;5.77
69186;BMP280;56298;49.246;9.410;2023-12-20T07:05:39;99571.34;;;5.71
69186;BMP280;56298;49.246;9.410;2023-12-20T07:08:06;99569.13;;;5.73
69186;BMP280;56298;49.246;9.410;2023-12-20T07:10:31;99581.28;;;5.76
69186;BMP280;56298;49.246;9.410;2023-12-20T07:12:56;99581.50;;;5.80
69186;BMP280;56298;49.246;9.410;2023-12-20T07:15:30;99577.13;;;5.79
69186;BMP280;56298;49.246;9.410;2023-12-20T07:17:58;99593.91;;;5.72
69186;BMP280;56298;49.246;9.410;2023-12-20T07:20:25;99579.50;;;5.63
69186;BMP280;56298;49.246;9.410;2023-12-20T07:22:54;99591.16;;;5.63
69186;BMP280;56298;49.246;9.410;2023-12-20T07:25:20;99597.84;;;5.57
69186;BMP280;56298;49.246;9.410;2023-12-20T07:27:45;99594.31;;;5.56
69186;BMP280;56298;49.246;9.410;2023-12-20T07:30:11;99597.84;;;5.57
69186;BMP280;56298;49.246;9.410;2023-12-20T07:32:36;99596.59;;;5.63
69186;BMP280;56298;49.246;9.410;2023-12-20T07:35:04;99607.59;;;5.58
69186;BMP280;56298;49.246;9.410;2023-12-20T07:37:30;99610.50;;;5.61
69186;BMP280;56298;49.246;9.410;2023-12-20T07:39:56;99600.75;;;5.60
69186;BMP280;56298;49.246;9.410;2023-12-20T07:42:21;99606.78;;;5.57
69186;BMP280;56298;49.246;9.410;2023-12-20T07:44:47;99615.63;;;5.54
69186;BMP280;56298;49.246;9.410;2023-12-20T07:47:12;99619.47;;;5.62
69186;BMP280;56298;49.246;9.410;2023-12-20T07:49:40;99616.06;;;5.56
69186;BMP280;56298;49.246;9.410;2023-12-20T07:52:06;99612.56;;;5.56
69186;BMP280;56298;49.246;9.410;2023-12-20T07:54:31;99614.31;;;5.52
69186;BMP280;56298;49.246;9.410;2023-12-20T07:56:59;99618.75;;;5.47
69186;BMP280;56298;49.246;9.410;2023-12-20T07:59:24;99626.28;;;5.51
69186;BMP280;56298;49.246;9.410;2023-12-20T08:01:49;99621.66;;;5.51
69186;BMP280;56298;49.246;9.410;2023-12-20T08:04:15;99615.22;;;5.47
69186;BMP280;56298;49.246;9.410;2023-12-20T08:06:40;99619.66;;;5.43
69186;BMP280;56298;49.246;9.410;2023-12-20T08:09:05;99631.97;;;5.40
69186;BMP280;56298;49.246;9.410;2023-12-20T08:11:30;99632.28;;;5.39
69186;BMP280;56298;49.246;9.410;2023-12-20T08:13:56;99628.59;;;5.34
69186;BMP280;56298;49.246;9.410;2023-12-20T08:16:21;99626.97;;;5.33
69186;BMP280;56298;49.246;9.410;2023-12-20T08:18:50;99640.44;;;5.39
69186;BMP280;56298;49.246;9.410;2023-12-20T08:21:15;99639.47;;;5.34
69186;BMP280;56298;49.246;9.410;2023-12-20T08:23:40;99639.16;;;5.36
69186;BMP280;56298;49.246;9.410;2023-12-20T08:26:09;99642.06;;;5.40
69186;BMP280;56298;49.246;9.410;2023-12-20T08:28:34;99644.66;;;5.45
69186;BMP280;56298;49.246;9.410;2023-12-20T08:31:00;99636.50;;;5.68
69186;BMP280;56298;49.246;9.410;2023-12-20T08:33:25;99634.66;;;5.86
69186;BMP280;56298;49.246;9.410;2023-12-20T08:35:50;99640.13;;;5.95
69186;BMP280;56298;49.246;9.410;2023-12-20T08:38:16;99640.25;;;5.89
69186;BMP280;56298;49.246;9.410;2023-12-20T08:40:42;99636.53;;;5.77
69186;BMP280;56298;49.246;9.410;2023-12-20T08:43:08;99624.34;;;5.74
69186;BMP280;56298;49.246;9.410;2023-12-20T08:45:33;99625.81;;;5.57
69186;BMP280;56298;49.246;9.410;2023-12-20T08:47:58;99625.09;;;5.43
69186;BMP280;56298;49.246;9.410;2023-12-20T08:50:24;99626.19;;;5.33
69186;BMP280;56298;49.246;9.410;2023-12-20T08:52:50;99626.66;;;5.35
69186;BMP280;56298;49.246;9.410;2023-12-20T08:55:15;99630.75;;;5.46
69186;BMP280;56298;49.246;9.410;2023-12-20T08:57:43;99627.94;;;5.92
69186;BMP280;56298;49.246;9.410;2023-12-20T09:03:24;99616.09;;;6.37
69186;BMP280;56298;49.246;9.410;2023-12-20T09:05:49;99617.88;;;6.33
69186;BMP280;56298;49.246;9.410;2023-12-20T09:08:15;99620.31;;;6.52
69186;BMP280;56298;49.246;9.410;2023-12-20T09:10:40;99618.13;;;6.72
69186;BMP280;56298;49.246;9.410;2023-12-20T09:13:05;99622.59;;;6.68
69186;BMP280;56298;49.246;9.410;2023-12-20T09:15:31;99628.22;;;6.72
69186;BMP280;56298;49.246;9.410;2023-12-20T09:17:56;99633.19;;;6.87
69186;BMP280;56298;49.246;9.410;2023-12-20T09:20:21;99615.75;;;6.97
69186;BMP280;56298;49.246;9.410;2023-12-20T09:22:48;99633.38;;;7.08
69186;BMP280;56298;49.246;9.410;2023-12-20T09:25:14;99622.78;;;7.16
69186;BMP280;56298;49.246;9.410;2023-12-20T09:27:41;99634.63;;;7.29
69186;BMP280;56298;49.246;9.410;2023-12-20T09:30:06;99635.09;;;7.39
69186;BMP280;56298;49.246;9.410;2023-12-20T09:32:32;99640.22;;;7.50
69186;BMP280;56298;49.246;9.410;2023-12-20T09:34:57;99638.16;;;7.38
69186;BMP280;56298;49.246;9.410;2023-12-20T09:37:25;99629.81;;;7.25
69186;BMP280;56298;49.246;9.410;2023-12-20T09:39:50;99630.16;;;6.97
69186;BMP280;56298;49.246;9.410;2023-12-20T09:42:23;99638.63;;;6.87
69186;BMP280;56298;49.246;9.410;2023-12-20T09:44:49;99638.50;;;6.83
69186;BMP280;56298;49.246;9.410;2023-12-20T09:47:15;99637.50;;;6.88
69186;BMP280;56298;49.246;9.410;2023-12-20T09:49:44;99636.38;;;6.89
69186;BMP280;56298;49.246;9.410;2023-12-20T09:52:10;99638.84;;;7.00
69186;BMP280;56298;49.246;9.410;2023-12-20T09:54:36;99641.38;;;7.05
69186;BMP280;56298;49.246;9.410;2023-12-20T09:57:13;99647.31;;;7.07
69186;BMP280;56298;49.246;9.410;2023-12-20T09:59:39;99646.34;;;7.03
69186;BMP280;56298;49.246;9.410;2023-12-20T10:02:08;99648.72;;;6.87
69186;BMP280;56298;49.246;9.410;2023-12-20T10:07:57;99646.50;;;6.71
69186;BMP280;56298;49.246;9.410;2023-12-20T10:10:23;99650.19;;;6.66
69186;BMP280;56298;49.246;9.410;2023-12-20T10:13:03;99645.69;;;6.79
69186;BMP280;56298;49.246;9.410;2023-12-20T10:15:29;99639.09;;;6.89
69186;BMP280;56298;49.246;9.410;2023-12-20T10:17:54;99642.81;;;6.84
69186;BMP280;56298;49.246;9.410;2023-12-20T10:20:20;99632.56;;;6.99
69186;BMP280;56298;49.246;9.410;2023-12-20T10:22:46;99643.28;;;7.04
69186;BMP280;56298;49.246;9.410;2023-12-20T10:25:12;99637.22;;;7.07
69186;BMP280;56298;49.246;9.410;2023-12-20T10:27:37;99632.72;;;6.94
69186;BMP280;56298;49.246;9.410;2023-12-20T10:30:03;99643.13;;;6.92
69186;BMP280;56298;49.246;9.410;2023-12-20T10:32:28;99640.53;;;6.87
69186;BMP280;56298;49.246;9.410;2023-12-20T10:34:54;99624.69;;;6.89
69186;BMP280;56298;49.246;9.410;2023-12-20T10:37:20;99633.38;;;7.00
69186;BMP280;56298;49.246;9.410;2023-12-20T10:40:07;99635.59;;;7.15
69186;BMP280;56298;49.246;9.410;2023-12-20T10:42:33;99644.06;;;7.58
69186;BMP280;56298;49.246;9.410;2023-12-20T10:45:01;99631.28;;;7.88
69186;BMP280;56298;49.246;9.410;2023-12-20T10:47:28;99638.28;;;8.07
69186;BMP280;56298;49.246;9.410;2023-12-20T10:49:55;99628.59;;;8.18
69186;BMP280;56298;49.246;9.410;2023-12-20T10:52:22;99631.06;;;8.02
69186;BMP280;56298;49.246;9.410;2023-12-20T10:54:48;99628.59;;;7.71
69186;BMP280;56298;49.246;9.410;2023-12-20T10:57:13;99618.06;;;7.51
69186;BMP280;56298;49.246;9.410;2023-12-20T10:59:39;99616.78;;;7.58
69186;BMP280;56298;49.246;9.410;2023-12-20T11:02:05;99608.25;;;7.50
69186;BMP280;56298;49.246;9.410;2023-12-20T11:07:23;99608.53;;;7.75
69186;BMP280;56298;49.246;9.410;2023-12-20T11:09:57;99606.47;;;7.72
69186;BMP280;56298;49.246;9.410;2023-12-20T11:12:47;99612.13;;;7.58
69186;BMP280;56298;49.246;9.410;2023-12-20T11:15:14;99614.25;;;7.44
69186;BMP280;56298;49.246;9.410;2023-12-20T11:17:40;99606.38;;;7.33
69186;BMP280;56298;49.246;9.410;2023-12-20T11:20:07;99600.09;;;7.42
69186;BMP280;56298;49.246;9.410;2023-12-20T11:22:35;99602.31;;;7.57
69186;BMP280;56298;49.246;9.410;2023-12-20T11:25:10;99599.75;;;7.52
69186;BMP280;56298;49.246;9.410;2023-12-20T11:27:40;99611.84;;;7.33
69186;BMP280;56298;49.246;9.410;2023-12-20T11:30:06;99596.13;;;7.21
69186;BMP280;56298;49.246;9.410;2023-12-20T11:32:35;99597.06;;;7.43
69186;BMP280;56298;49.246;9.410;2023-12-20T11:35:18;99602.44;;;7.70
69186;BMP280;56298;49.246;9.410;2023-12-20T11:38:01;99596.22;;;7.99
69186;BMP280;56298;49.246;9.410;2023-12-20T11:40:26;99582.06;;;8.06
69186;BMP280;56298;49.246;9.410;2023-12-20T11:42:51;99591.72;;;8.03
69186;BMP280;56298;49.246;9.410;2023-12-20T11:45:21;99586.72;;;8.05
69186;BMP280;56298;49.246;9.410;2023-12-20T11:47:50;99582.63;;;8.42
69186;BMP280;56298;49.246;9.410;2023-12-20T11:50:19;99571.88;;;9.00
69186;BMP280;56298;49.246;9.410;2023-12-20T11:52:45;99572.88;;;8.96
69186;BMP280;56298;49.246;9.410;2023-12-20T11:55:12;99574.56;;;8.88
69186;BMP280;56298;49.246;9.410;2023-12-20T11:57:38;99580.75;;;8.97
69186;BMP280;56298;49.246;9.410;2023-12-20T12:00:03;99577.03;;;9.14
69186;BMP280;56298;49.246;9.410;2023-12-20T12:02:29;99572.31;;;9.36
69186;BMP280;56298;49.246;9.410;2023-12-20T12:04:55;99576.22;;;9.60
69186;BMP280;56298;49.246;9.410;2023-12-20T12:07:21;99574.97;;;9.57
69186;BMP280;56298;49.246;9.410;2023-12-20T12:09:47;99572.19;;;9.45
69186;BMP280;56298;49.246;9.410;2023-12-20T12:12:13;99577.09;;;9.52
69186;BMP280;56298;49.246;9.410;2023-12-20T12:14:39;99577.53;;;9.29
69186;BMP280;56298;49.246;9.410;2023-12-20T12:17:10;99568.44;;;9.37
69186;BMP280;56298;49.246;9.410;2023-12-20T12:19:36;99567.13;;;9.10
69186;BMP280;56298;49.246;9.410;2023-12-20T12:22:09;99567.97;;;9.23
69186;BMP280;56298;49.246;9.410;2023-12-20T12:24:43;99572.34;;;9.49
69186;BMP280;56298;49.246;9.410;2023-12-20T12:27:09;99570.94;;;9.42
69186;BMP280;56298;49.246;9.410;2023-12-20T12:29:36;99562.25;;;9.15
69186;BMP280;56298;49.246;9.410;2023-12-20T12:32:06;99564.03;;;8.56
69186;BMP280;56298;49.246;9.410;2023-12-20T12:34:32;99560.72;;;8.29
69186;BMP280;56298;49.246;9.410;2023-12-20T12:36:59;99570.34;;;8.05
69186;BMP280;56298;49.246;9.410;2023-12-20T12:39:25;99570.91;;;7.81
69186;BMP280;56298;49.246;9.410;2023-12-20T12:41:51;99572.06;;;7.80
69186;BMP280;56298;49.246;9.410;2023-12-20T12:44:16;99579.63;;;7.74
69186;BMP280;56298;49.246;9.410;2023-12-20T12:46:43;99577.31;;;7.85
69186;BMP280;56298;49.246;9.410;2023-12-20T12:49:08;99576.78;;;7.62
69186;BMP280;56298;49.246;9.410;2023-12-20T12:51:34;99590.00;;;7.42
69186;BMP280;56298;49.246;9.410;2023-12-20T12:53:59;99580.34;;;7.53
69186;BMP280;56298;49.246;9.410;2023-12-20T12:56:25;99579.97;;;7.64
69186;BMP280;56298;49.246;9.410;2023-12-20T12:58:50;99581.25;;;7.66
69186;BMP280;56298;49.246;9.410;2023-12-20T13:01:16;99583.66;;;7.68
69186;BMP280;56298;49.246;9.410;2023-12-20T13:03:41;99586.38;;;7.68
69186;BMP280;56298;49.246;9.410;2023-12-20T13:06:06;99574.41;;;7.60
69186;BMP280;56298;49.246;9.410;2023-12-20T13:08:34;99578.44;;;7.45
69186;BMP280;56298;49.246;9.410;2023-12-20T13:10:59;99567.06;;;7.43
69186;BMP280;56298;49.246;9.410;2023-12-20T13:13:26;99567.22;;;7.38
69186;BMP280;56298;49.246;9.410;2023-12-20T13:15:52;99555.03;;;7.27
69186;BMP280;56298;49.246;9.410;2023-12-20T13:18:20;99563.25;;;7.35
69186;BMP280;56298;49.246;9.410;2023-12-20T13:20:46;99556.16;;;7.25
69186;BMP280;56298;49.246;9.410;2023-12-20T13:23:14;99561.97;;;7.15
69186;BMP280;56298;49.246;9.410;2023-12-20T13:25:41;99563.13;;;6.96
69186;BMP280;56298;49.246;9.410;2023-12-20T13:28:06;99569.38;;;6.88
69186;BMP280;56298;49.246;9.410;2023-12-20T13:30:31;99564.72;;;6.89
69186;BMP280;56298;49.246;9.410;2023-12-20T13:32:57;99556.88;;;6.78
69186;BMP280;56298;49.246;9.410;2023-12-20T13:35:22;99571.63;;;6.68
69186;BMP280;56298;49.246;9.410;2023-12-20T13:37:47;99575.47;;;6.59
69186;BMP280;56298;49.246;9.410;2023-12-20T13:40:13;99568.41;;;6.49
69186;BMP280;56298;49.246;9.410;2023-12-20T13:42:39;99573.19;;;6.52
69186;BMP280;56298;49.246;9.410;2023-12-20T13:45:06;99575.28;;;6.55
69186;BMP280;56298;49.246;9.410;2023-12-20T13:47:32;99571.63;;;6.60
69186;BMP280;56298;49.246;9.410;2023-12-20T13:49:58;99565.53;;;6.54
69186;BMP280;56298;49.246;9.410;2023-12-20T13:52:23;99570.16;;;6.53
69186;BMP280;56298;49.246;9.410;2023-12-20T13:54:48;99563.63;;;6.54
69186;BMP280;56298;49.246;9.410;2023-12-20T14:01:04;99547.19;;;6.19
69186;BMP280;56298;49.246;9.410;2023-12-20T14:03:29;99544.16;;;6.21
69186;BMP280;56298;49.246;9.410;2023-12-20T14:05:56;99530.84;;;6.19
69186;BMP280;56298;49.246;9.410;2023-12-20T14:08:21;99530.22;;;6.22
69186;BMP280;56298;49.246;9.410;2023-12-20T14:10:46;99535.97;;;6.21
69186;BMP280;56298;49.246;9.410;2023-12-20T14:13:11;99521.09;;;6.18
69186;BMP280;56298;49.246;9.410;2023-12-20T14:15:37;99523.97;;;6.13
69186;BMP280;56298;49.246;9.410;2023-12-20T14:18:04;99525.56;;;6.05
69186;BMP280;56298;49.246;9.410;2023-12-20T14:20:31;99523.78;;;6.00
69186;BMP280;56298;49.246;9.410;2023-12-20T14:22:57;99514.78;;;5.91
69186;BMP280;56298;49.246;9.410;2023-12-20T14:25:22;99513.34;;;5.94
69186;BMP280;56298;49.246;9.410;2023-12-20T14:27:48;99514.16;;;5.94
69186;BMP280;56298;49.246;9.410;2023-12-20T14:30:13;99523.91;;;5.95
69186;BMP280;56298;49.246;9.410;2023-12-20T14:32:39;99517.03;;;5.98
69186;BMP280;56298;49.246;9.410;2023-12-20T14:35:05;99518.66;;;5.99